createdAt,value
2022-11-05T00:00:59.223Z,87.04
2022-11-05T00:01:59.305Z,87.59
2022-11-05T00:02:59.136Z,87.79
2022-11-05T00:03:59.194Z,87.49
2022-11-05T00:04:59.300Z,87.34
2022-11-05T00:05:59.089Z,87.38
2022-11-05T00:06:59.095Z,87.49
2022-11-05T00:07:59.061Z,87.59
2022-11-05T00:08:59.030Z,87.59
2022-11-05T00:09:59.018Z,87.70
2022-11-05T00:10:59.268Z,87.28
2022-11-05T00:11:59.049Z,87.38
2022-11-05T00:12:58.973Z,87.59
2022-11-05T00:13:58.948Z,87.70
2022-11-05T00:14:58.943Z,88.00
2022-11-05T00:15:58.912Z,87.38
2022-11-05T00:16:59.122Z,87.70
2022-11-05T00:17:59.062Z,87.49
2022-11-05T00:18:58.954Z,87.49
2022-11-05T00:19:58.854Z,87.79
2022-11-05T00:20:58.837Z,87.28
2022-11-05T00:21:58.911Z,87.59
2022-11-05T00:22:58.798Z,87.59
2022-11-05T00:23:58.767Z,88.21
2022-11-05T00:24:58.765Z,88.10
2022-11-05T00:25:58.734Z,88.10
2022-11-05T00:26:58.765Z,87.49
2022-11-05T00:27:58.705Z,88.21
2022-11-05T00:28:58.735Z,88.04
2022-11-05T00:29:58.833Z,87.90
2022-11-05T00:30:58.653Z,88.21
2022-11-05T00:31:58.678Z,87.79
2022-11-05T00:32:58.638Z,88.10
2022-11-05T00:33:58.651Z,87.70
2022-11-05T00:34:58.583Z,88.10
2022-11-05T00:35:58.579Z,88.41
2022-11-05T00:36:58.588Z,87.79
2022-11-05T00:37:58.542Z,87.70
2022-11-05T00:38:58.518Z,87.49
2022-11-05T00:39:59.992Z,88.00
2022-11-05T00:40:58.722Z,88.10
2022-11-05T00:41:58.504Z,87.79
2022-11-05T00:42:58.461Z,88.10
2022-11-05T00:43:58.834Z,87.79
2022-11-05T00:44:58.553Z,88.00
2022-11-05T00:45:58.427Z,88.21
2022-11-05T00:46:59.929Z,87.79
2022-11-05T00:47:59.912Z,88.00
2022-11-05T00:48:58.361Z,88.31
2022-11-05T00:49:59.986Z,88.62
2022-11-05T00:50:58.324Z,88.00
2022-11-05T00:51:58.413Z,88.31
2022-11-05T00:52:58.287Z,87.90
2022-11-05T00:53:58.331Z,88.21
2022-11-05T00:54:58.251Z,87.79
2022-11-05T00:55:58.226Z,88.31
2022-11-05T00:57:03.417Z,88.21
2022-11-05T00:58:00.207Z,88.41
2022-11-05T00:58:58.182Z,87.79
2022-11-05T00:59:58.175Z,88.31
2022-11-05T01:00:58.151Z,87.90
2022-11-05T01:01:58.365Z,87.90
2022-11-05T01:02:59.884Z,87.90
2022-11-05T01:03:58.138Z,88.62
2022-11-05T01:04:58.285Z,88.31
2022-11-05T01:05:58.065Z,88.45
2022-11-05T01:06:58.091Z,89.03
2022-11-05T01:07:58.034Z,89.13
2022-11-05T01:08:58.019Z,89.43
2022-11-05T01:09:58.014Z,88.92
2022-11-05T01:10:57.983Z,89.33
2022-11-05T01:11:58.018Z,89.17
2022-11-05T01:12:57.957Z,88.92
2022-11-05T01:13:57.934Z,88.82
2022-11-05T01:14:58.036Z,88.82
2022-11-05T01:15:57.896Z,89.13
2022-11-05T01:16:57.911Z,89.23
2022-11-05T01:17:57.986Z,89.13
2022-11-05T01:18:57.848Z,88.86
2022-11-05T01:19:57.823Z,89.13
2022-11-05T01:20:57.812Z,88.92
2022-11-05T01:21:57.820Z,88.72
2022-11-05T01:22:57.805Z,88.72
2022-11-05T01:23:57.757Z,88.72
2022-11-05T01:24:57.738Z,89.13
2022-11-05T01:25:57.727Z,89.03
2022-11-05T01:26:57.755Z,88.82
2022-11-05T01:27:57.794Z,89.03
2022-11-05T01:28:57.719Z,88.92
2022-11-05T01:29:57.684Z,88.72
2022-11-05T01:30:57.770Z,89.54
2022-11-05T01:31:57.649Z,89.33
2022-11-05T01:32:57.618Z,89.43
2022-11-05T01:33:57.597Z,88.92
2022-11-05T01:34:57.573Z,89.03
2022-11-05T01:35:57.553Z,89.03
2022-11-05T01:36:57.565Z,89.13
2022-11-05T01:37:57.729Z,88.96
2022-11-05T01:38:57.500Z,89.33
2022-11-05T01:39:57.491Z,89.27
2022-11-05T01:40:57.496Z,89.54
2022-11-05T01:41:57.924Z,89.54
2022-11-05T01:42:57.442Z,89.48
2022-11-05T01:43:57.419Z,89.58
2022-11-05T01:44:57.416Z,89.23
2022-11-05T01:45:57.400Z,88.96
2022-11-05T01:46:57.401Z,89.58
2022-11-05T01:47:57.518Z,89.48
2022-11-05T01:49:02.749Z,89.75
2022-11-05T01:49:59.317Z,89.95
2022-11-05T01:50:57.303Z,89.54
2022-11-05T01:51:57.325Z,89.69
2022-11-05T01:52:57.265Z,89.43
2022-11-05T01:53:57.246Z,89.58
2022-11-05T01:54:57.227Z,89.43
2022-11-05T01:55:57.205Z,89.13
2022-11-05T01:56:57.224Z,89.43
2022-11-05T01:57:57.168Z,89.69
2022-11-05T01:58:57.151Z,89.48
2022-11-05T01:59:58.811Z,89.75
2022-11-05T02:00:57.118Z,89.99
2022-11-05T02:01:57.192Z,90.16
2022-11-05T02:02:57.161Z,89.64
2022-11-05T02:03:57.063Z,89.75
2022-11-05T02:04:57.046Z,90.05
2022-11-05T02:05:57.053Z,89.78
2022-11-05T02:06:57.062Z,90.16
2022-11-05T02:07:57.013Z,89.75
2022-11-05T02:08:57.025Z,89.95
2022-11-05T02:09:56.973Z,89.64
2022-11-05T02:10:56.946Z,90.26
2022-11-05T02:11:56.959Z,88.82
2022-11-05T02:12:56.907Z,88.72
2022-11-05T02:13:56.896Z,89.43
2022-11-05T02:14:56.872Z,88.72
2022-11-05T02:15:56.938Z,89.13
2022-11-05T02:16:57.132Z,89.33
2022-11-05T02:17:56.828Z,89.29
2022-11-05T02:18:56.806Z,89.43
2022-11-05T02:19:57.145Z,88.92
2022-11-05T02:20:56.845Z,88.88
2022-11-05T02:21:57.493Z,89.09
2022-11-05T02:22:57.037Z,89.50
2022-11-05T02:23:56.730Z,89.54
2022-11-05T02:24:56.739Z,89.29
2022-11-05T02:25:56.679Z,89.23
2022-11-05T02:26:56.716Z,89.03
2022-11-05T02:27:56.655Z,89.29
2022-11-05T02:28:56.810Z,89.09
2022-11-05T02:29:56.696Z,88.98
2022-11-05T02:30:56.604Z,88.98
2022-11-05T02:31:56.615Z,89.09
2022-11-05T02:32:56.697Z,89.60
2022-11-05T02:33:56.544Z,89.81
2022-11-05T02:34:56.544Z,89.70
2022-11-05T02:35:57.048Z,89.50
2022-11-05T02:36:56.626Z,89.54
2022-11-05T02:37:56.473Z,89.29
2022-11-05T02:38:56.458Z,89.60
2022-11-05T02:39:56.467Z,89.54
2022-11-05T02:40:56.429Z,89.64
2022-11-05T02:41:59.287Z,89.54
2022-11-05T02:42:58.818Z,89.43
2022-11-05T02:43:56.393Z,90.16
2022-11-05T02:44:56.354Z,90.36
2022-11-05T02:45:56.520Z,90.56
2022-11-05T02:46:56.350Z,90.87
2022-11-05T02:47:56.376Z,90.77
2022-11-05T02:48:56.299Z,90.77
2022-11-05T02:49:56.307Z,90.77
2022-11-05T02:50:56.253Z,90.16
2022-11-05T02:51:56.265Z,90.81
2022-11-05T02:52:56.224Z,90.87
2022-11-05T02:53:56.204Z,91.28
2022-11-05T02:54:56.183Z,91.49
2022-11-05T02:55:56.166Z,91.63
2022-11-05T02:56:56.189Z,91.53
2022-11-05T02:57:56.129Z,91.74
2022-11-05T02:58:56.123Z,91.18
2022-11-05T02:59:56.099Z,91.53
2022-11-05T03:00:56.099Z,91.18
2022-11-05T03:01:56.259Z,91.38
2022-11-05T03:02:56.133Z,90.87
2022-11-05T03:03:56.036Z,90.87
2022-11-05T03:04:56.020Z,90.97
2022-11-05T03:05:56.003Z,90.97
2022-11-05T03:06:55.984Z,90.91
2022-11-05T03:07:56.006Z,91.38
2022-11-05T03:08:55.968Z,91.69
2022-11-05T03:09:55.942Z,91.53
2022-11-05T03:10:55.917Z,92.25
2022-11-05T03:11:55.934Z,92.04
2022-11-05T03:12:55.875Z,91.94
2022-11-05T03:13:55.878Z,92.25
2022-11-05T03:14:55.842Z,92.46
2022-11-05T03:15:55.838Z,92.55
2022-11-05T03:16:55.806Z,92.66
2022-11-05T03:17:55.824Z,92.55
2022-11-05T03:18:55.770Z,92.76
2022-11-05T03:19:55.780Z,92.60
2022-11-05T03:20:55.739Z,92.60
2022-11-05T03:21:55.767Z,92.70
2022-11-05T03:22:55.900Z,92.80
2022-11-05T03:23:55.690Z,92.60
2022-11-05T03:24:55.675Z,92.19
2022-11-05T03:25:55.658Z,92.70
2022-11-05T03:26:55.636Z,93.01
2022-11-05T03:27:55.645Z,93.01
2022-11-05T03:28:55.603Z,93.05
2022-11-05T03:29:55.584Z,93.63
2022-11-05T03:30:55.565Z,93.46
2022-11-05T03:31:55.544Z,93.67
2022-11-05T03:32:55.555Z,93.42
2022-11-05T03:33:55.506Z,94.04
2022-11-05T03:34:55.488Z,93.77
2022-11-05T03:35:55.476Z,93.87
2022-11-05T03:36:55.457Z,93.87
2022-11-05T03:37:55.481Z,93.32
2022-11-05T03:38:55.443Z,93.98
2022-11-05T03:39:55.405Z,93.87
2022-11-05T03:40:55.644Z,93.98
2022-11-05T03:41:55.370Z,93.87
2022-11-05T03:42:55.412Z,94.08
2022-11-05T03:43:55.342Z,94.08
2022-11-05T03:44:55.316Z,94.59
2022-11-05T03:45:56.314Z,94.49
2022-11-05T03:46:55.302Z,95.10
2022-11-05T03:47:55.306Z,95.01
2022-11-05T03:48:55.364Z,95.42
2022-11-05T03:49:55.230Z,95.42
2022-11-05T03:50:55.215Z,95.42
2022-11-05T03:51:55.198Z,95.31
2022-11-05T03:52:55.218Z,95.01
2022-11-05T03:53:55.596Z,95.52
2022-11-05T03:54:56.154Z,95.10
2022-11-05T03:55:55.125Z,95.01
2022-11-05T03:56:55.108Z,95.42
2022-11-05T03:57:55.137Z,94.76
2022-11-05T03:58:58.929Z,94.18
2022-11-05T03:59:56.053Z,94.85
2022-11-05T04:00:55.040Z,94.55
2022-11-05T04:01:55.222Z,94.85
2022-11-05T04:02:55.210Z,94.08
2022-11-05T04:03:54.995Z,94.45
2022-11-05T04:04:54.970Z,94.04
2022-11-05T04:05:54.960Z,94.39
2022-11-05T04:06:54.932Z,94.80
2022-11-05T04:07:54.946Z,94.55
2022-11-05T04:08:54.904Z,94.65
2022-11-05T04:09:54.888Z,94.55
2022-11-05T04:10:54.862Z,94.65
2022-11-05T04:11:54.847Z,94.45
2022-11-05T04:12:54.867Z,94.55
2022-11-05T04:13:55.418Z,94.55
2022-11-05T04:14:54.812Z,94.55
2022-11-05T04:15:54.784Z,94.55
2022-11-05T04:16:54.867Z,94.45
2022-11-05T04:17:54.855Z,94.65
2022-11-05T04:18:54.736Z,94.45
2022-11-05T04:19:54.722Z,94.55
2022-11-05T04:20:54.708Z,94.45
2022-11-05T04:21:54.676Z,94.24
2022-11-05T04:22:54.702Z,94.34
2022-11-05T04:23:54.656Z,94.14
2022-11-05T04:24:54.636Z,94.34
2022-11-05T04:25:54.609Z,93.93
2022-11-05T04:26:54.602Z,93.93
2022-11-05T04:27:54.599Z,94.04
2022-11-05T04:28:54.569Z,93.73
2022-11-05T04:29:54.571Z,93.63
2022-11-05T04:30:54.524Z,93.83
2022-11-05T04:31:54.534Z,93.57
2022-11-05T04:32:54.532Z,93.46
2022-11-05T04:33:54.468Z,93.73
2022-11-05T04:34:54.455Z,92.80
2022-11-05T04:35:54.463Z,92.74
2022-11-05T04:36:54.417Z,92.95
2022-11-05T04:37:54.431Z,92.95
2022-11-05T04:38:54.382Z,93.05
2022-11-05T04:39:54.375Z,93.05
2022-11-05T04:40:54.366Z,93.12
2022-11-05T04:41:54.420Z,93.01
2022-11-05T04:42:54.348Z,93.12
2022-11-05T04:43:54.312Z,93.05
2022-11-05T04:44:54.297Z,92.80
2022-11-05T04:45:54.278Z,92.91
2022-11-05T04:46:54.271Z,92.85
2022-11-05T04:47:54.268Z,92.74
2022-11-05T04:48:54.266Z,93.05
2022-11-05T04:49:54.192Z,92.95
2022-11-05T04:50:54.196Z,92.85
2022-11-05T04:51:54.172Z,92.23
2022-11-05T04:52:54.183Z,92.33
2022-11-05T04:53:54.132Z,92.64
2022-11-05T04:54:54.121Z,92.33
2022-11-05T04:55:54.096Z,91.72
2022-11-05T04:56:54.082Z,91.66
2022-11-05T04:57:54.088Z,91.82
2022-11-05T04:58:54.040Z,91.76
2022-11-05T04:59:54.032Z,92.38
2022-11-05T05:00:54.081Z,92.42
2022-11-05T05:01:54.019Z,92.42
2022-11-05T05:02:54.020Z,92.77
2022-11-05T05:03:53.974Z,92.87
2022-11-05T05:04:53.935Z,92.97
2022-11-05T05:05:54.230Z,94.31
2022-11-05T05:06:54.907Z,93.64
2022-11-05T05:07:53.919Z,93.90
2022-11-05T05:08:53.870Z,93.59
2022-11-05T05:09:53.843Z,94.05
2022-11-05T05:10:53.837Z,93.95
2022-11-05T05:11:53.826Z,93.64
2022-11-05T05:12:53.828Z,93.95
2022-11-05T05:13:53.787Z,94.36
2022-11-05T05:14:53.764Z,94.26
2022-11-05T05:15:53.748Z,94.67
2022-11-05T05:16:53.719Z,94.56
2022-11-05T05:17:53.733Z,95.02
2022-11-05T05:18:53.696Z,95.53
2022-11-05T05:19:53.685Z,95.74
2022-11-05T05:20:53.662Z,95.64
2022-11-05T05:21:53.637Z,95.02
2022-11-05T05:22:53.649Z,95.23
2022-11-05T05:23:53.605Z,95.43
2022-11-05T05:24:53.591Z,95.17
2022-11-05T05:25:53.563Z,95.78
2022-11-05T05:26:53.568Z,95.78
2022-11-05T05:27:53.526Z,95.89
2022-11-05T05:28:53.529Z,95.48
2022-11-05T05:29:53.499Z,95.78
2022-11-05T05:30:58.502Z,95.68
2022-11-05T05:31:55.511Z,96.20
2022-11-05T05:32:53.436Z,96.50
2022-11-05T05:33:54.430Z,96.30
2022-11-05T05:34:53.415Z,96.41
2022-11-05T05:35:53.400Z,96.30
2022-11-05T05:36:53.431Z,96.30
2022-11-05T05:37:53.350Z,95.58
2022-11-05T05:38:53.335Z,96.30
2022-11-05T05:39:53.311Z,96.30
2022-11-05T05:40:53.306Z,96.20
2022-11-05T05:41:53.314Z,96.41
2022-11-05T05:42:53.271Z,96.81
2022-11-05T05:43:53.354Z,97.38
2022-11-05T05:44:53.230Z,96.96
2022-11-05T05:45:53.200Z,97.17
2022-11-05T05:46:53.225Z,97.27
2022-11-05T05:47:53.191Z,96.66
2022-11-05T05:48:53.156Z,96.71
2022-11-05T05:49:53.138Z,96.24
2022-11-05T05:50:53.118Z,96.45
2022-11-05T05:51:53.143Z,96.92
2022-11-05T05:52:53.087Z,97.27
2022-11-05T05:54:31.723Z,96.75
2022-11-05T05:54:54.056Z,97.17
2022-11-05T05:55:53.055Z,96.45
2022-11-05T05:56:53.132Z,96.55
2022-11-05T05:57:53.030Z,96.96
2022-11-05T05:58:53.029Z,97.17
2022-11-05T05:59:52.979Z,97.27
2022-11-05T06:00:52.956Z,96.45
2022-11-05T06:01:53.061Z,96.24
2022-11-05T06:02:52.994Z,97.06
2022-11-05T06:03:52.916Z,96.55
2022-11-05T06:04:53.021Z,96.34
2022-11-05T06:05:52.870Z,96.75
2022-11-05T06:06:52.881Z,96.55
2022-11-05T06:07:52.831Z,96.75
2022-11-05T06:08:52.816Z,96.86
2022-11-05T06:09:52.799Z,96.55
2022-11-05T06:10:52.863Z,96.96
2022-11-05T06:11:52.788Z,96.66
2022-11-05T06:12:52.757Z,97.38
2022-11-05T06:13:52.729Z,97.27
2022-11-05T06:14:52.740Z,97.38
2022-11-05T06:15:52.692Z,97.68
2022-11-05T06:16:52.745Z,97.78
2022-11-05T06:17:52.648Z,97.38
2022-11-05T06:18:52.647Z,97.38
2022-11-05T06:19:52.618Z,97.48
2022-11-05T06:20:52.612Z,97.78
2022-11-05T06:21:52.619Z,97.78
2022-11-05T06:22:52.574Z,97.43
2022-11-05T06:23:52.580Z,97.53
2022-11-05T06:24:52.548Z,98.05
2022-11-05T06:25:52.521Z,97.43
2022-11-05T06:26:52.529Z,96.41
2022-11-05T06:27:52.494Z,96.55
2022-11-05T06:28:52.470Z,96.86
2022-11-05T06:29:52.446Z,96.50
2022-11-05T06:30:52.439Z,96.14
2022-11-05T06:31:52.453Z,96.61
2022-11-05T06:32:52.413Z,96.71
2022-11-05T06:33:52.396Z,96.71
2022-11-05T06:34:52.361Z,96.71
2022-11-05T06:35:52.358Z,96.61
2022-11-05T06:36:52.366Z,96.50
2022-11-05T06:37:52.318Z,96.92
2022-11-05T06:38:52.291Z,96.41
2022-11-05T06:39:52.281Z,96.61
2022-11-05T06:40:52.264Z,96.71
2022-11-05T06:42:16.781Z,97.13
2022-11-05T06:42:54.281Z,97.13
2022-11-05T06:43:52.221Z,97.33
2022-11-05T06:44:52.184Z,97.13
2022-11-05T06:45:52.181Z,97.08
2022-11-05T06:46:52.159Z,96.92
2022-11-05T06:47:52.367Z,96.77
2022-11-05T06:48:52.118Z,97.08
2022-11-05T06:49:52.101Z,96.67
2022-11-05T06:50:52.092Z,97.08
2022-11-05T06:51:52.066Z,96.56
2022-11-05T06:52:52.081Z,96.67
2022-11-05T06:53:52.087Z,97.08
2022-11-05T06:54:52.024Z,96.46
2022-11-05T06:55:52.005Z,96.77
2022-11-05T06:56:51.994Z,96.05
2022-11-05T06:57:52.160Z,96.36
2022-11-05T06:58:51.949Z,96.21
2022-11-05T06:59:55.723Z,96.31
2022-11-05T07:00:53.989Z,96.21
2022-11-05T07:01:52.017Z,95.59
2022-11-05T07:02:51.920Z,95.39
2022-11-05T07:03:51.864Z,95.70
2022-11-05T07:04:51.867Z,94.93
2022-11-05T07:05:51.818Z,95.28
2022-11-05T07:06:51.805Z,95.59
2022-11-05T07:07:51.825Z,95.55
2022-11-05T07:08:51.781Z,94.77
2022-11-05T07:09:51.772Z,94.77
2022-11-05T07:10:51.757Z,94.01
2022-11-05T07:11:51.738Z,93.96
2022-11-05T07:12:51.744Z,92.74
2022-11-05T07:13:51.860Z,91.28
2022-11-05T07:14:51.676Z,89.45
2022-11-05T07:15:51.697Z,86.91
2022-11-05T07:16:51.640Z,86.57
2022-11-05T07:17:51.648Z,84.48
2022-11-05T07:18:51.623Z,83.46
2022-11-05T07:19:51.594Z,82.95
2022-11-05T07:20:51.612Z,81.44
2022-11-05T07:21:51.559Z,80.24
2022-11-05T07:22:51.585Z,78.43
2022-11-05T07:23:51.514Z,76.18
2022-11-05T07:24:51.498Z,73.97
2022-11-05T07:25:51.493Z,72.69
2022-11-05T07:26:51.473Z,70.18
2022-11-05T07:27:51.491Z,68.39
2022-11-05T07:28:51.642Z,67.14
2022-11-05T07:29:51.483Z,66.19
2022-11-05T07:30:51.409Z,64.75
2022-11-05T07:31:51.604Z,64.51
2022-11-05T07:32:51.726Z,64.07
2022-11-05T07:33:51.356Z,63.34
2022-11-05T07:34:51.328Z,61.90
2022-11-05T07:35:51.332Z,61.05
2022-11-05T07:36:51.371Z,61.46
2022-11-05T07:37:51.306Z,60.45
2022-11-05T07:38:53.894Z,60.62
2022-11-05T07:39:52.237Z,60.69
2022-11-05T07:40:51.225Z,59.48
2022-11-05T07:41:51.216Z,59.05
2022-11-05T07:42:51.227Z,57.98
2022-11-05T07:43:51.164Z,57.18
2022-11-05T07:44:51.154Z,58.65
2022-11-05T07:45:51.271Z,58.87
2022-11-05T07:46:51.114Z,58.42
2022-11-05T07:47:51.127Z,57.68
2022-11-05T07:48:51.084Z,56.85
2022-11-05T07:49:51.073Z,55.79
2022-11-05T07:50:51.046Z,54.46
2022-11-05T07:51:51.034Z,53.42
2022-11-05T07:52:51.044Z,53.40
2022-11-05T07:53:51.137Z,53.40
2022-11-05T07:54:50.982Z,53.30
2022-11-05T07:55:51.299Z,53.50
2022-11-05T07:56:50.976Z,52.89
2022-11-05T07:57:50.956Z,53.60
2022-11-05T07:58:50.911Z,53.42
2022-11-05T07:59:50.894Z,53.45
2022-11-05T08:00:50.990Z,54.03
2022-11-05T08:01:51.049Z,54.05
2022-11-05T08:02:51.140Z,53.45
2022-11-05T08:03:50.839Z,54.35
2022-11-05T08:04:50.941Z,53.90
2022-11-05T08:05:50.801Z,53.20
2022-11-05T08:06:50.792Z,51.97
2022-11-05T08:07:51.077Z,51.31
2022-11-05T08:08:50.751Z,50.68
2022-11-05T08:09:50.730Z,50.48
2022-11-05T08:10:50.708Z,50.99
2022-11-05T08:11:53.042Z,50.18
2022-11-05T08:12:51.714Z,50.36
2022-11-05T08:13:50.896Z,48.83
2022-11-05T08:14:50.639Z,49.01
2022-11-05T08:15:50.639Z,48.16
2022-11-05T08:16:50.612Z,47.44
2022-11-05T08:17:50.626Z,46.64
2022-11-05T08:18:50.579Z,46.46
2022-11-05T08:19:50.571Z,46.36
2022-11-05T08:20:50.539Z,46.46
2022-11-05T08:21:50.527Z,46.46
2022-11-05T08:22:50.540Z,47.99
2022-11-05T08:23:50.491Z,48.58
2022-11-05T08:24:50.502Z,47.69
2022-11-05T08:25:50.456Z,48.51
2022-11-05T08:26:50.441Z,48.86
2022-11-05T08:27:50.465Z,49.26
2022-11-05T08:28:50.607Z,49.78
2022-11-05T08:29:50.536Z,48.88
2022-11-05T08:30:50.507Z,48.48
2022-11-05T08:31:50.360Z,49.36
2022-11-05T08:32:50.379Z,49.26
2022-11-05T08:33:50.326Z,48.93
2022-11-05T08:34:50.334Z,48.23
2022-11-05T08:35:50.495Z,48.01
2022-11-05T08:36:50.280Z,47.28
2022-11-05T08:37:50.295Z,47.86
2022-11-05T08:38:50.388Z,46.92
2022-11-05T08:39:50.246Z,45.50
2022-11-05T08:40:50.251Z,44.87
2022-11-05T08:41:50.213Z,45.75
2022-11-05T08:42:50.233Z,44.43
2022-11-05T08:43:50.329Z,43.73
2022-11-05T08:44:50.199Z,43.73
2022-11-05T08:45:50.153Z,44.13
2022-11-05T08:46:50.140Z,43.53
2022-11-05T08:47:50.141Z,43.83
2022-11-05T08:48:50.113Z,45.03
2022-11-05T08:49:50.074Z,44.55
2022-11-05T08:50:50.064Z,44.85
2022-11-05T08:51:50.038Z,44.85
2022-11-05T08:52:50.077Z,44.75
2022-11-05T08:53:50.097Z,45.45
2022-11-05T08:54:50.000Z,44.03
2022-11-05T08:55:50.027Z,43.33
2022-11-05T08:56:49.962Z,43.91
2022-11-05T08:57:49.976Z,43.19
2022-11-05T08:58:49.934Z,42.47
2022-11-05T08:59:49.977Z,42.35
2022-11-05T09:00:49.969Z,41.93
2022-11-05T09:01:49.965Z,41.93
2022-11-05T09:02:49.905Z,40.92
2022-11-05T09:03:49.859Z,40.64
2022-11-05T09:04:49.852Z,40.64
2022-11-05T09:05:49.819Z,41.83
2022-11-05T09:06:49.831Z,41.89
2022-11-05T09:07:49.823Z,42.21
2022-11-05T09:08:49.834Z,42.43
2022-11-05T09:09:49.762Z,43.73
2022-11-05T09:10:49.795Z,42.93
2022-11-05T09:12:11.087Z,42.63
2022-11-05T09:12:51.755Z,43.51
2022-11-05T09:13:49.710Z,43.31
2022-11-05T09:14:49.678Z,42.41
2022-11-05T09:15:49.675Z,42.61
2022-11-05T09:16:49.639Z,42.71
2022-11-05T09:17:49.823Z,43.63
2022-11-05T09:18:49.644Z,43.67
2022-11-05T09:19:49.597Z,45.34
2022-11-05T09:20:50.587Z,46.62
2022-11-05T09:21:49.559Z,48.27
2022-11-05T09:22:49.573Z,50.38
2022-11-05T09:23:49.618Z,49.55
2022-11-05T09:24:50.543Z,49.35
2022-11-05T09:25:49.497Z,50.31
2022-11-05T09:26:49.505Z,50.51
2022-11-05T09:27:49.510Z,50.51
2022-11-05T09:28:50.218Z,49.37
2022-11-05T09:29:49.435Z,49.01
2022-11-05T09:30:49.416Z,48.20
2022-11-05T09:31:49.419Z,48.10
2022-11-05T09:32:49.432Z,47.65
2022-11-05T09:33:49.388Z,47.83
2022-11-05T09:34:49.358Z,47.50
2022-11-05T09:35:49.346Z,47.28
2022-11-05T09:36:49.383Z,46.86
2022-11-05T09:37:49.353Z,45.64
2022-11-05T09:38:49.318Z,45.42
2022-11-05T09:39:49.286Z,44.93
2022-11-05T09:40:49.257Z,43.84
2022-11-05T09:41:49.258Z,44.24
2022-11-05T09:42:49.261Z,44.13
2022-11-05T09:43:49.216Z,45.64
2022-11-05T09:44:49.202Z,45.24
2022-11-05T09:45:49.192Z,45.14
2022-11-05T09:46:49.192Z,45.12
2022-11-05T09:47:49.181Z,44.59
2022-11-05T09:48:49.135Z,43.79
2022-11-05T09:49:49.138Z,43.48
2022-11-05T09:50:49.114Z,43.65
2022-11-05T09:51:49.100Z,44.05
2022-11-05T09:52:49.104Z,43.51
2022-11-05T09:53:49.062Z,43.70
2022-11-05T09:54:49.041Z,43.79
2022-11-05T09:55:49.024Z,43.71
2022-11-05T09:56:49.012Z,43.59
2022-11-05T09:57:49.038Z,43.57
2022-11-05T09:58:48.993Z,43.85
2022-11-05T09:59:48.970Z,43.99
2022-11-05T10:00:49.007Z,45.38
2022-11-05T10:01:49.057Z,46.45
2022-11-05T10:02:48.966Z,47.35
2022-11-05T10:03:48.924Z,47.30
2022-11-05T10:04:49.109Z,47.85
2022-11-05T10:05:48.987Z,47.43
2022-11-05T10:06:48.862Z,48.05
2022-11-05T10:07:48.878Z,45.30
2022-11-05T10:08:48.825Z,44.84
2022-11-05T10:09:48.831Z,46.30
2022-11-05T10:10:48.820Z,45.32
2022-11-05T10:11:48.779Z,45.46
2022-11-05T10:12:48.792Z,44.49
2022-11-05T10:13:48.758Z,44.74
2022-11-05T10:14:48.750Z,45.48
2022-11-05T10:15:48.721Z,46.03
2022-11-05T10:16:48.710Z,46.35
2022-11-05T10:17:48.714Z,46.84
2022-11-05T10:18:48.675Z,48.82
2022-11-05T10:19:48.654Z,49.27
2022-11-05T10:20:48.648Z,51.61
2022-11-05T10:22:50.627Z,53.93
2022-11-05T10:23:49.587Z,55.04
2022-11-05T10:24:48.580Z,55.07
2022-11-05T10:25:48.573Z,53.78
2022-11-05T10:26:48.553Z,54.91
2022-11-05T10:27:48.563Z,53.70
2022-11-05T10:28:48.581Z,55.67
2022-11-05T10:29:48.495Z,55.90
2022-11-05T10:30:48.476Z,55.19
2022-11-05T10:31:48.476Z,55.67
2022-11-05T10:32:48.479Z,56.00
2022-11-05T10:33:48.428Z,54.31
2022-11-05T10:34:48.424Z,54.31
2022-11-05T10:35:48.406Z,55.52
2022-11-05T10:36:48.401Z,52.57
2022-11-05T10:37:48.396Z,50.38
2022-11-05T10:38:48.364Z,49.55
2022-11-05T10:39:48.337Z,49.70
2022-11-05T10:40:48.312Z,49.48
2022-11-05T10:41:48.299Z,48.08
2022-11-05T10:42:48.302Z,46.53
2022-11-05T10:43:48.262Z,47.36
2022-11-05T10:44:48.245Z,46.00
2022-11-05T10:45:48.239Z,45.96
2022-11-05T10:46:48.214Z,44.74
2022-11-05T10:47:48.229Z,44.12
2022-11-05T10:48:48.180Z,43.82
2022-11-05T10:49:48.177Z,43.79
2022-11-05T10:50:48.152Z,43.59
2022-11-05T10:51:48.139Z,43.98
2022-11-05T10:52:48.144Z,42.82
2022-11-05T10:53:48.112Z,46.15
2022-11-05T10:54:48.085Z,47.38
2022-11-05T10:55:48.113Z,45.88
2022-11-05T10:56:48.061Z,45.12
2022-11-05T10:57:48.073Z,45.87
2022-11-05T10:58:48.043Z,46.72
2022-11-05T10:59:48.001Z,46.64
2022-11-05T11:00:48.197Z,47.00
2022-11-05T11:01:48.208Z,48.69
2022-11-05T11:02:47.981Z,50.62
2022-11-05T11:03:47.949Z,51.68
2022-11-05T11:04:47.919Z,51.81
2022-11-05T11:05:47.916Z,51.40
2022-11-05T11:06:47.882Z,51.43
2022-11-05T11:07:47.899Z,52.26
2022-11-05T11:08:47.850Z,51.88
2022-11-05T11:09:47.851Z,51.70
2022-11-05T11:10:47.818Z,52.06
2022-11-05T11:11:47.813Z,51.40
2022-11-05T11:12:47.819Z,51.15
2022-11-05T11:13:47.771Z,51.88
2022-11-05T11:14:47.756Z,51.60
2022-11-05T11:15:47.755Z,52.33
2022-11-05T11:16:47.721Z,53.58
2022-11-05T11:17:47.748Z,54.03
2022-11-05T11:18:47.705Z,54.13
2022-11-05T11:19:47.673Z,54.39
2022-11-05T11:20:47.669Z,55.73
2022-11-05T11:21:47.640Z,56.44
2022-11-05T11:22:47.671Z,56.04
2022-11-05T11:23:47.604Z,57.31
2022-11-05T11:24:47.594Z,57.71
2022-11-05T11:25:47.573Z,57.95
2022-11-05T11:26:47.559Z,59.27
2022-11-05T11:27:47.565Z,59.06
2022-11-05T11:28:47.517Z,59.30
2022-11-05T11:29:49.596Z,59.80
2022-11-05T11:30:48.480Z,60.18
2022-11-05T11:31:47.483Z,60.36
2022-11-05T11:32:47.464Z,59.54
2022-11-05T11:33:47.463Z,58.63
2022-11-05T11:34:47.466Z,58.40
2022-11-05T11:35:47.446Z,56.74
2022-11-05T11:36:47.383Z,56.24
2022-11-05T11:37:47.375Z,56.04
2022-11-05T11:38:47.448Z,54.90
2022-11-05T11:39:47.341Z,53.37
2022-11-05T11:40:47.344Z,53.67
2022-11-05T11:41:48.309Z,53.88
2022-11-05T11:42:47.316Z,54.69
2022-11-05T11:43:47.269Z,54.69
2022-11-05T11:44:47.397Z,53.80
2022-11-05T11:45:47.269Z,54.61
2022-11-05T11:46:48.160Z,54.13
2022-11-05T11:47:48.161Z,54.74
2022-11-05T11:48:47.313Z,55.18
2022-11-05T11:49:47.172Z,55.68
2022-11-05T11:50:47.157Z,55.81
2022-11-05T11:51:50.156Z,56.55
2022-11-05T11:52:48.154Z,57.67
2022-11-05T11:53:47.127Z,57.06
2022-11-05T11:54:47.095Z,57.69
2022-11-05T11:55:47.101Z,58.61
2022-11-05T11:56:47.155Z,57.77
2022-11-05T11:57:47.073Z,57.18
2022-11-05T11:58:47.026Z,57.77
2022-11-05T12:00:07.884Z,57.79
2022-11-05T12:00:49.011Z,58.40
2022-11-05T12:01:47.023Z,58.20
2022-11-05T12:02:47.024Z,58.30
2022-11-05T12:03:46.956Z,57.79
2022-11-05T12:04:46.949Z,57.69
2022-11-05T12:05:46.951Z,58.20
2022-11-05T12:06:46.906Z,58.30
2022-11-05T12:07:46.952Z,58.92
2022-11-05T12:08:49.492Z,58.40
2022-11-05T12:09:47.866Z,58.23
2022-11-05T12:10:46.853Z,58.23
2022-11-05T12:11:46.863Z,58.56
2022-11-05T12:12:46.822Z,58.53
2022-11-05T12:13:46.826Z,58.64
2022-11-05T12:14:46.940Z,58.61
2022-11-05T12:15:46.746Z,57.79
2022-11-05T12:16:46.738Z,57.69
2022-11-05T12:17:46.744Z,58.51
2022-11-05T12:18:46.739Z,58.10
2022-11-05T12:19:46.798Z,58.20
2022-11-05T12:20:48.356Z,59.12
2022-11-05T12:21:52.909Z,59.12
2022-11-05T12:22:48.664Z,57.97
2022-11-05T12:23:46.630Z,59.01
2022-11-05T12:24:46.606Z,59.01
2022-11-05T12:25:46.590Z,58.40
2022-11-05T12:26:46.589Z,57.87
2022-11-05T12:27:46.590Z,58.69
2022-11-05T12:29:16.546Z,58.48
2022-11-05T12:29:48.530Z,58.28
2022-11-05T12:30:46.543Z,58.38
2022-11-05T12:31:46.489Z,58.69
2022-11-05T12:32:46.631Z,58.17
2022-11-05T12:33:46.457Z,57.97
2022-11-05T12:34:46.436Z,58.28
2022-11-05T12:35:49.860Z,58.61
2022-11-05T12:36:48.431Z,58.00
2022-11-05T12:37:47.432Z,58.20
2022-11-05T12:38:46.369Z,58.20
2022-11-05T12:39:46.400Z,58.33
2022-11-05T12:40:46.336Z,58.64
2022-11-05T12:41:46.333Z,59.05
2022-11-05T12:42:46.341Z,59.05
2022-11-05T12:43:46.350Z,59.05
2022-11-05T12:44:46.306Z,59.14
2022-11-05T12:45:46.249Z,58.26
2022-11-05T12:46:46.233Z,59.17
2022-11-05T12:47:46.237Z,59.48
2022-11-05T12:48:46.200Z,59.66
2022-11-05T12:49:46.184Z,59.25
2022-11-05T12:50:46.164Z,59.45
2022-11-05T12:51:46.169Z,58.64
2022-11-05T12:52:46.177Z,59.05
2022-11-05T12:53:46.115Z,58.30